sensor_id;sensor_type;location;lat;lon;timestamp;P1;durP1;ratioP1;P2;durP2;ratioP2
30398;SDS011;17195;50.838;7.214;2023-03-15T00:02:05;12.48;;;4.28;;
30398;SDS011;17195;50.838;7.214;2023-03-15T00:04:31;17.95;;;5.90;;
30398;SDS011;17195;50.838;7.214;2023-03-15T00:06:56;22.80;;;5.90;;
30398;SDS011;17195;50.838;7.214;2023-03-15T00:09:23;13.18;;;4.20;;
30398;SDS011;17195;50.838;7.214;2023-03-15T00:11:49;10.75;;;3.30;;
30398;SDS011;17195;50.838;7.214;2023-03-15T00:14:15;12.80;;;3.40;;
30398;SDS011;17195;50.838;7.214;2023-03-15T00:16:41;15.05;;;4.22;;
30398;SDS011;17195;50.838;7.214;2023-03-15T00:19:07;9.10;;;2.90;;
30398;SDS011;17195;50.838;7.214;2023-03-15T00:21:33;11.07;;;2.95;;
30398;SDS011;17195;50.838;7.214;2023-03-15T00:23:59;12.95;;;3.13;;
30398;SDS011;17195;50.838;7.214;2023-03-15T00:26:24;11.77;;;2.65;;
30398;SDS011;17195;50.838;7.214;2023-03-15T00:28:50;17.80;;;3.15;;
30398;SDS011;17195;50.838;7.214;2023-03-15T00:31:17;15.70;;;3.03;;
30398;SDS011;17195;50.838;7.214;2023-03-15T00:33:45;15.80;;;2.60;;
30398;SDS011;17195;50.838;7.214;2023-03-15T00:36:11;17.13;;;2.78;;
30398;SDS011;17195;50.838;7.214;2023-03-15T00:38:38;12.85;;;2.83;;
30398;SDS011;17195;50.838;7.214;2023-03-15T00:43:32;12.50;;;2.75;;
30398;SDS011;17195;50.838;7.214;2023-03-15T00:45:58;14.48;;;2.70;;
30398;SDS011;17195;50.838;7.214;2023-03-15T00:48:24;17.67;;;3.20;;
30398;SDS011;17195;50.838;7.214;2023-03-15T00:50:49;14.40;;;2.40;;
30398;SDS011;17195;50.838;7.214;2023-03-15T00:53:15;16.65;;;3.25;;
30398;SDS011;17195;50.838;7.214;2023-03-15T00:55:40;16.70;;;2.80;;
30398;SDS011;17195;50.838;7.214;2023-03-15T00:58:06;19.92;;;2.95;;
30398;SDS011;17195;50.838;7.214;2023-03-15T01:00:32;12.55;;;3.13;;
30398;SDS011;17195;50.838;7.214;2023-03-15T01:02:58;19.35;;;3.83;;
30398;SDS011;17195;50.838;7.214;2023-03-15T01:05:24;22.15;;;6.32;;
30398;SDS011;17195;50.838;7.214;2023-03-15T01:07:50;15.25;;;3.78;;
30398;SDS011;17195;50.838;7.214;2023-03-15T01:10:17;20.50;;;5.88;;
30398;SDS011;17195;50.838;7.214;2023-03-15T01:12:43;13.50;;;4.95;;
30398;SDS011;17195;50.838;7.214;2023-03-15T01:15:12;17.85;;;4.88;;
30398;SDS011;17195;50.838;7.214;2023-03-15T01:17:38;20.92;;;4.00;;
30398;SDS011;17195;50.838;7.214;2023-03-15T01:20:04;10.95;;;4.10;;
30398;SDS011;17195;50.838;7.214;2023-03-15T01:22:30;14.95;;;4.65;;
30398;SDS011;17195;50.838;7.214;2023-03-15T01:24:56;13.27;;;4.00;;
30398;SDS011;17195;50.838;7.214;2023-03-15T01:27:22;13.10;;;4.40;;
30398;SDS011;17195;50.838;7.214;2023-03-15T01:29:47;19.00;;;4.47;;
30398;SDS011;17195;50.838;7.214;2023-03-15T01:32:13;13.55;;;4.20;;
30398;SDS011;17195;50.838;7.214;2023-03-15T01:34:38;17.00;;;5.95;;
30398;SDS011;17195;50.838;7.214;2023-03-15T01:37:04;11.55;;;4.75;;
30398;SDS011;17195;50.838;7.214;2023-03-15T01:39:30;11.43;;;4.78;;
30398;SDS011;17195;50.838;7.214;2023-03-15T01:41:56;12.23;;;4.65;;
30398;SDS011;17195;50.838;7.214;2023-03-15T01:44:23;18.02;;;4.75;;
30398;SDS011;17195;50.838;7.214;2023-03-15T01:46:49;14.38;;;5.10;;
30398;SDS011;17195;50.838;7.214;2023-03-15T01:49:30;14.27;;;5.00;;
30398;SDS011;17195;50.838;7.214;2023-03-15T01:51:58;14.25;;;4.05;;
30398;SDS011;17195;50.838;7.214;2023-03-15T01:54:35;16.90;;;4.70;;
30398;SDS011;17195;50.838;7.214;2023-03-15T01:57:22;17.75;;;4.80;;
30398;SDS011;17195;50.838;7.214;2023-03-15T02:00:12;12.63;;;5.57;;
30398;SDS011;17195;50.838;7.214;2023-03-15T02:02:40;13.48;;;5.40;;
30398;SDS011;17195;50.838;7.214;2023-03-15T02:05:11;19.52;;;6.15;;
30398;SDS011;17195;50.838;7.214;2023-03-15T02:07:44;20.35;;;5.75;;
30398;SDS011;17195;50.838;7.214;2023-03-15T02:11:00;19.60;;;5.75;;
30398;SDS011;17195;50.838;7.214;2023-03-15T02:13:12;20.70;;;6.85;;
30398;SDS011;17195;50.838;7.214;2023-03-15T02:15:41;19.80;;;6.38;;
30398;SDS011;17195;50.838;7.214;2023-03-15T02:18:10;16.65;;;6.07;;
30398;SDS011;17195;50.838;7.214;2023-03-15T02:23:27;13.80;;;6.50;;
30398;SDS011;17195;50.838;7.214;2023-03-15T02:26:06;16.65;;;6.70;;
30398;SDS011;17195;50.838;7.214;2023-03-15T02:28:37;18.52;;;7.03;;
30398;SDS011;17195;50.838;7.214;2023-03-15T02:31:04;28.00;;;7.97;;
30398;SDS011;17195;50.838;7.214;2023-03-15T02:33:34;21.55;;;7.50;;
30398;SDS011;17195;50.838;7.214;2023-03-15T02:36:13;15.95;;;7.85;;
30398;SDS011;17195;50.838;7.214;2023-03-15T02:38:50;17.13;;;7.55;;
30398;SDS011;17195;50.838;7.214;2023-03-15T02:41:20;16.85;;;7.15;;
30398;SDS011;17195;50.838;7.214;2023-03-15T02:44:07;17.27;;;7.30;;
30398;SDS011;17195;50.838;7.214;2023-03-15T02:46:39;21.13;;;8.15;;
30398;SDS011;17195;50.838;7.214;2023-03-15T02:49:06;14.93;;;7.55;;
30398;SDS011;17195;50.838;7.214;2023-03-15T02:51:33;16.92;;;7.93;;
30398;SDS011;17195;50.838;7.214;2023-03-15T02:53:59;17.02;;;6.95;;
30398;SDS011;17195;50.838;7.214;2023-03-15T02:56:24;16.35;;;7.65;;
30398;SDS011;17195;50.838;7.214;2023-03-15T02:58:50;13.77;;;7.18;;
30398;SDS011;17195;50.838;7.214;2023-03-15T03:01:16;12.98;;;7.32;;
30398;SDS011;17195;50.838;7.214;2023-03-15T03:03:43;12.77;;;6.90;;
30398;SDS011;17195;50.838;7.214;2023-03-15T03:06:09;16.52;;;7.38;;
30398;SDS011;17195;50.838;7.214;2023-03-15T03:08:38;12.48;;;6.88;;
30398;SDS011;17195;50.838;7.214;2023-03-15T03:11:04;13.80;;;6.82;;
30398;SDS011;17195;50.838;7.214;2023-03-15T03:13:30;14.77;;;6.78;;
30398;SDS011;17195;50.838;7.214;2023-03-15T03:15:56;14.77;;;7.03;;
30398;SDS011;17195;50.838;7.214;2023-03-15T03:18:25;9.77;;;6.32;;
30398;SDS011;17195;50.838;7.214;2023-03-15T03:20:54;13.80;;;7.43;;
30398;SDS011;17195;50.838;7.214;2023-03-15T03:23:21;10.80;;;6.78;;
30398;SDS011;17195;50.838;7.214;2023-03-15T03:25:49;12.38;;;7.05;;
30398;SDS011;17195;50.838;7.214;2023-03-15T03:28:22;11.35;;;6.25;;
30398;SDS011;17195;50.838;7.214;2023-03-15T03:30:51;9.70;;;6.15;;
30398;SDS011;17195;50.838;7.214;2023-03-15T03:33:17;9.25;;;5.32;;
30398;SDS011;17195;50.838;7.214;2023-03-15T03:35:43;8.25;;;5.43;;
30398;SDS011;17195;50.838;7.214;2023-03-15T03:38:09;7.72;;;5.22;;
30398;SDS011;17195;50.838;7.214;2023-03-15T03:40:36;7.60;;;5.07;;
30398;SDS011;17195;50.838;7.214;2023-03-15T03:43:03;7.70;;;5.13;;
30398;SDS011;17195;50.838;7.214;2023-03-15T03:45:28;9.60;;;5.95;;
30398;SDS011;17195;50.838;7.214;2023-03-15T03:47:54;10.88;;;6.65;;
30398;SDS011;17195;50.838;7.214;2023-03-15T03:50:20;7.65;;;5.47;;
30398;SDS011;17195;50.838;7.214;2023-03-15T03:52:45;10.43;;;6.57;;
30398;SDS011;17195;50.838;7.214;2023-03-15T03:55:11;10.77;;;6.90;;
30398;SDS011;17195;50.838;7.214;2023-03-15T03:57:37;9.50;;;6.40;;
30398;SDS011;17195;50.838;7.214;2023-03-15T04:00:04;8.38;;;5.55;;
30398;SDS011;17195;50.838;7.214;2023-03-15T04:02:30;10.43;;;5.93;;
30398;SDS011;17195;50.838;7.214;2023-03-15T04:04:56;11.02;;;6.72;;
30398;SDS011;17195;50.838;7.214;2023-03-15T04:07:21;9.63;;;6.65;;
30398;SDS011;17195;50.838;7.214;2023-03-15T04:09:47;11.45;;;6.78;;
30398;SDS011;17195;50.838;7.214;2023-03-15T04:12:12;12.73;;;6.70;;
30398;SDS011;17195;50.838;7.214;2023-03-15T04:14:38;9.80;;;6.65;;
30398;SDS011;17195;50.838;7.214;2023-03-15T04:17:03;12.48;;;6.60;;
30398;SDS011;17195;50.838;7.214;2023-03-15T04:19:29;7.53;;;5.90;;
30398;SDS011;17195;50.838;7.214;2023-03-15T04:21:55;7.50;;;5.63;;
30398;SDS011;17195;50.838;7.214;2023-03-15T04:24:21;11.07;;;6.38;;
30398;SDS011;17195;50.838;7.214;2023-03-15T04:26:46;10.10;;;6.18;;
30398;SDS011;17195;50.838;7.214;2023-03-15T04:29:12;9.10;;;5.68;;
30398;SDS011;17195;50.838;7.214;2023-03-15T04:31:39;11.02;;;6.10;;
30398;SDS011;17195;50.838;7.214;2023-03-15T04:34:07;9.38;;;6.25;;
30398;SDS011;17195;50.838;7.214;2023-03-15T04:36:33;11.00;;;6.70;;
30398;SDS011;17195;50.838;7.214;2023-03-15T04:38:58;9.63;;;6.63;;
30398;SDS011;17195;50.838;7.214;2023-03-15T04:41:31;9.82;;;6.45;;
30398;SDS011;17195;50.838;7.214;2023-03-15T04:44:01;9.10;;;6.32;;
30398;SDS011;17195;50.838;7.214;2023-03-15T04:46:28;9.85;;;6.25;;
30398;SDS011;17195;50.838;7.214;2023-03-15T04:48:54;10.60;;;5.60;;
30398;SDS011;17195;50.838;7.214;2023-03-15T04:51:20;12.10;;;6.20;;
30398;SDS011;17195;50.838;7.214;2023-03-15T04:53:45;12.40;;;6.63;;
30398;SDS011;17195;50.838;7.214;2023-03-15T04:56:11;8.93;;;6.03;;
30398;SDS011;17195;50.838;7.214;2023-03-15T04:58:36;11.25;;;6.25;;
30398;SDS011;17195;50.838;7.214;2023-03-15T05:01:02;11.57;;;6.45;;
30398;SDS011;17195;50.838;7.214;2023-03-15T05:03:27;10.35;;;6.55;;
30398;SDS011;17195;50.838;7.214;2023-03-15T05:05:53;12.90;;;6.32;;
30398;SDS011;17195;50.838;7.214;2023-03-15T05:08:18;11.48;;;6.63;;
30398;SDS011;17195;50.838;7.214;2023-03-15T05:10:44;14.13;;;7.50;;
30398;SDS011;17195;50.838;7.214;2023-03-15T05:13:10;11.07;;;6.70;;
30398;SDS011;17195;50.838;7.214;2023-03-15T05:15:35;12.55;;;7.53;;
30398;SDS011;17195;50.838;7.214;2023-03-15T05:18:01;13.05;;;7.28;;
30398;SDS011;17195;50.838;7.214;2023-03-15T05:20:28;13.77;;;8.15;;
30398;SDS011;17195;50.838;7.214;2023-03-15T05:22:53;13.82;;;7.60;;
30398;SDS011;17195;50.838;7.214;2023-03-15T05:25:19;10.98;;;6.93;;
30398;SDS011;17195;50.838;7.214;2023-03-15T05:27:45;14.60;;;7.75;;
30398;SDS011;17195;50.838;7.214;2023-03-15T05:30:11;13.02;;;7.85;;
30398;SDS011;17195;50.838;7.214;2023-03-15T05:32:38;16.30;;;9.25;;
30398;SDS011;17195;50.838;7.214;2023-03-15T05:35:04;14.13;;;8.18;;
30398;SDS011;17195;50.838;7.214;2023-03-15T05:37:31;14.18;;;9.02;;
30398;SDS011;17195;50.838;7.214;2023-03-15T05:39:57;13.55;;;8.77;;
30398;SDS011;17195;50.838;7.214;2023-03-15T05:42:24;14.90;;;8.85;;
30398;SDS011;17195;50.838;7.214;2023-03-15T05:44:50;17.45;;;9.80;;
30398;SDS011;17195;50.838;7.214;2023-03-15T05:47:20;18.42;;;10.32;;
30398;SDS011;17195;50.838;7.214;2023-03-15T05:49:47;17.38;;;11.07;;
30398;SDS011;17195;50.838;7.214;2023-03-15T05:52:13;18.75;;;10.77;;
30398;SDS011;17195;50.838;7.214;2023-03-15T05:54:39;20.63;;;10.68;;
30398;SDS011;17195;50.838;7.214;2023-03-15T05:57:04;15.20;;;9.40;;
30398;SDS011;17195;50.838;7.214;2023-03-15T05:59:30;15.75;;;9.98;;
30398;SDS011;17195;50.838;7.214;2023-03-15T06:01:56;16.45;;;10.43;;
30398;SDS011;17195;50.838;7.214;2023-03-15T06:04:22;16.92;;;9.63;;
30398;SDS011;17195;50.838;7.214;2023-03-15T06:06:49;18.15;;;11.48;;
30398;SDS011;17195;50.838;7.214;2023-03-15T06:09:15;16.20;;;10.25;;
30398;SDS011;17195;50.838;7.214;2023-03-15T06:11:41;17.15;;;10.40;;
30398;SDS011;17195;50.838;7.214;2023-03-15T06:14:06;25.17;;;14.10;;
30398;SDS011;17195;50.838;7.214;2023-03-15T06:16:32;32.53;;;17.83;;
30398;SDS011;17195;50.838;7.214;2023-03-15T06:18:57;26.83;;;14.75;;
30398;SDS011;17195;50.838;7.214;2023-03-15T06:21:23;22.83;;;12.43;;
30398;SDS011;17195;50.838;7.214;2023-03-15T06:23:48;19.65;;;11.95;;
30398;SDS011;17195;50.838;7.214;2023-03-15T06:26:14;20.60;;;12.25;;
30398;SDS011;17195;50.838;7.214;2023-03-15T06:28:42;17.90;;;11.25;;
30398;SDS011;17195;50.838;7.214;2023-03-15T06:31:11;14.65;;;9.20;;
30398;SDS011;17195;50.838;7.214;2023-03-15T06:33:38;18.23;;;10.05;;
30398;SDS011;17195;50.838;7.214;2023-03-15T06:36:04;15.95;;;9.80;;
30398;SDS011;17195;50.838;7.214;2023-03-15T06:38:31;22.73;;;10.70;;
30398;SDS011;17195;50.838;7.214;2023-03-15T06:40:57;16.48;;;10.75;;
30398;SDS011;17195;50.838;7.214;2023-03-15T06:43:25;19.67;;;10.20;;
30398;SDS011;17195;50.838;7.214;2023-03-15T06:45:51;15.85;;;9.50;;
30398;SDS011;17195;50.838;7.214;2023-03-15T06:48:17;17.42;;;9.63;;
30398;SDS011;17195;50.838;7.214;2023-03-15T06:50:43;15.20;;;8.60;;
30398;SDS011;17195;50.838;7.214;2023-03-15T06:53:09;16.38;;;9.55;;
30398;SDS011;17195;50.838;7.214;2023-03-15T06:55:34;15.27;;;9.05;;
30398;SDS011;17195;50.838;7.214;2023-03-15T06:58:00;16.45;;;9.68;;
30398;SDS011;17195;50.838;7.214;2023-03-15T07:00:25;18.30;;;8.05;;
30398;SDS011;17195;50.838;7.214;2023-03-15T07:02:51;15.30;;;8.65;;
30398;SDS011;17195;50.838;7.214;2023-03-15T07:05:17;13.45;;;7.78;;
30398;SDS011;17195;50.838;7.214;2023-03-15T07:07:42;15.15;;;7.88;;
30398;SDS011;17195;50.838;7.214;2023-03-15T07:10:08;13.07;;;8.55;;
30398;SDS011;17195;50.838;7.214;2023-03-15T07:12:35;18.38;;;9.18;;
30398;SDS011;17195;50.838;7.214;2023-03-15T07:15:00;10.32;;;8.07;;
30398;SDS011;17195;50.838;7.214;2023-03-15T07:17:26;13.93;;;9.43;;
30398;SDS011;17195;50.838;7.214;2023-03-15T07:19:51;12.50;;;8.82;;
30398;SDS011;17195;50.838;7.214;2023-03-15T07:22:17;16.85;;;10.20;;
30398;SDS011;17195;50.838;7.214;2023-03-15T07:24:42;14.25;;;10.32;;
30398;SDS011;17195;50.838;7.214;2023-03-15T07:27:11;14.27;;;10.23;;
30398;SDS011;17195;50.838;7.214;2023-03-15T07:29:38;15.73;;;9.48;;
30398;SDS011;17195;50.838;7.214;2023-03-15T07:32:04;13.75;;;9.48;;
30398;SDS011;17195;50.838;7.214;2023-03-15T07:34:30;13.93;;;9.10;;
30398;SDS011;17195;50.838;7.214;2023-03-15T07:36:56;13.38;;;8.98;;
30398;SDS011;17195;50.838;7.214;2023-03-15T07:39:21;11.40;;;8.80;;
30398;SDS011;17195;50.838;7.214;2023-03-15T07:41:47;10.25;;;8.57;;
30398;SDS011;17195;50.838;7.214;2023-03-15T07:44:13;12.25;;;8.52;;
30398;SDS011;17195;50.838;7.214;2023-03-15T07:46:39;11.85;;;9.05;;
30398;SDS011;17195;50.838;7.214;2023-03-15T07:49:04;12.80;;;8.80;;
30398;SDS011;17195;50.838;7.214;2023-03-15T07:51:30;10.93;;;9.30;;
30398;SDS011;17195;50.838;7.214;2023-03-15T07:53:56;12.38;;;9.15;;
30398;SDS011;17195;50.838;7.214;2023-03-15T07:56:21;10.45;;;8.30;;
30398;SDS011;17195;50.838;7.214;2023-03-15T07:58:47;11.80;;;8.85;;
30398;SDS011;17195;50.838;7.214;2023-03-15T08:01:12;12.38;;;9.35;;
30398;SDS011;17195;50.838;7.214;2023-03-15T08:03:38;12.40;;;9.38;;
30398;SDS011;17195;50.838;7.214;2023-03-15T08:06:03;12.82;;;9.75;;
30398;SDS011;17195;50.838;7.214;2023-03-15T08:08:29;13.32;;;9.80;;
30398;SDS011;17195;50.838;7.214;2023-03-15T08:10:55;13.23;;;9.88;;
30398;SDS011;17195;50.838;7.214;2023-03-15T08:13:20;16.98;;;10.43;;
30398;SDS011;17195;50.838;7.214;2023-03-15T08:15:46;13.02;;;10.27;;
30398;SDS011;17195;50.838;7.214;2023-03-15T08:18:12;12.48;;;10.00;;
30398;SDS011;17195;50.838;7.214;2023-03-15T08:20:38;15.52;;;10.35;;
30398;SDS011;17195;50.838;7.214;2023-03-15T08:23:04;12.63;;;9.90;;
30398;SDS011;17195;50.838;7.214;2023-03-15T08:25:30;15.63;;;9.95;;
30398;SDS011;17195;50.838;7.214;2023-03-15T08:27:56;14.93;;;10.32;;
30398;SDS011;17195;50.838;7.214;2023-03-15T08:30:21;11.88;;;9.50;;
30398;SDS011;17195;50.838;7.214;2023-03-15T08:32:48;11.65;;;9.32;;
30398;SDS011;17195;50.838;7.214;2023-03-15T08:35:16;14.60;;;10.18;;
30398;SDS011;17195;50.838;7.214;2023-03-15T08:37:43;14.75;;;9.32;;
30398;SDS011;17195;50.838;7.214;2023-03-15T08:40:11;14.32;;;10.35;;
30398;SDS011;17195;50.838;7.214;2023-03-15T08:42:38;13.25;;;9.77;;
30398;SDS011;17195;50.838;7.214;2023-03-15T08:45:04;11.80;;;8.60;;
30398;SDS011;17195;50.838;7.214;2023-03-15T08:47:31;14.93;;;9.77;;
30398;SDS011;17195;50.838;7.214;2023-03-15T08:50:01;12.50;;;10.35;;
30398;SDS011;17195;50.838;7.214;2023-03-15T08:52:29;12.10;;;8.90;;
30398;SDS011;17195;50.838;7.214;2023-03-15T08:54:55;12.85;;;9.13;;
30398;SDS011;17195;50.838;7.214;2023-03-15T08:57:21;13.63;;;9.40;;
30398;SDS011;17195;50.838;7.214;2023-03-15T08:59:50;12.85;;;10.23;;
30398;SDS011;17195;50.838;7.214;2023-03-15T09:02:16;16.65;;;10.55;;
30398;SDS011;17195;50.838;7.214;2023-03-15T09:04:42;13.48;;;10.10;;
30398;SDS011;17195;50.838;7.214;2023-03-15T09:07:07;17.05;;;10.50;;
30398;SDS011;17195;50.838;7.214;2023-03-15T09:09:33;16.40;;;9.98;;
30398;SDS011;17195;50.838;7.214;2023-03-15T09:11:59;14.95;;;9.73;;
30398;SDS011;17195;50.838;7.214;2023-03-15T09:14:24;15.40;;;9.30;;
30398;SDS011;17195;50.838;7.214;2023-03-15T09:16:50;14.18;;;9.68;;
30398;SDS011;17195;50.838;7.214;2023-03-15T09:19:16;14.23;;;9.77;;
30398;SDS011;17195;50.838;7.214;2023-03-15T09:21:41;14.60;;;10.63;;
30398;SDS011;17195;50.838;7.214;2023-03-15T09:24:09;13.32;;;9.85;;
30398;SDS011;17195;50.838;7.214;2023-03-15T09:26:34;17.90;;;10.55;;
30398;SDS011;17195;50.838;7.214;2023-03-15T09:29:00;17.15;;;10.95;;
30398;SDS011;17195;50.838;7.214;2023-03-15T09:31:25;18.20;;;10.30;;
30398;SDS011;17195;50.838;7.214;2023-03-15T09:33:51;12.48;;;9.45;;
30398;SDS011;17195;50.838;7.214;2023-03-15T09:36:17;11.57;;;9.25;;
30398;SDS011;17195;50.838;7.214;2023-03-15T09:38:42;13.85;;;9.20;;
30398;SDS011;17195;50.838;7.214;2023-03-15T09:41:19;12.88;;;9.32;;
30398;SDS011;17195;50.838;7.214;2023-03-15T09:44:08;9.55;;;7.43;;
30398;SDS011;17195;50.838;7.214;2023-03-15T09:46:39;13.70;;;7.80;;
30398;SDS011;17195;50.838;7.214;2023-03-15T09:49:20;10.20;;;7.18;;
30398;SDS011;17195;50.838;7.214;2023-03-15T09:51:59;9.57;;;6.72;;
30398;SDS011;17195;50.838;7.214;2023-03-15T09:55:11;10.77;;;7.45;;
30398;SDS011;17195;50.838;7.214;2023-03-15T09:57:34;11.32;;;7.00;;
30398;SDS011;17195;50.838;7.214;2023-03-15T10:00:13;9.25;;;6.60;;
30398;SDS011;17195;50.838;7.214;2023-03-15T10:02:43;11.52;;;6.30;;
30398;SDS011;17195;50.838;7.214;2023-03-15T10:05:19;15.00;;;6.93;;
30398;SDS011;17195;50.838;7.214;2023-03-15T10:07:59;9.82;;;6.47;;
30398;SDS011;17195;50.838;7.214;2023-03-15T10:10:27;9.30;;;5.72;;
30398;SDS011;17195;50.838;7.214;2023-03-15T10:13:02;10.00;;;5.80;;
30398;SDS011;17195;50.838;7.214;2023-03-15T10:21:03;8.63;;;4.82;;
30398;SDS011;17195;50.838;7.214;2023-03-15T10:23:42;12.35;;;4.97;;
30398;SDS011;17195;50.838;7.214;2023-03-15T10:26:13;5.95;;;4.40;;
30398;SDS011;17195;50.838;7.214;2023-03-15T10:28:42;11.38;;;4.45;;
30398;SDS011;17195;50.838;7.214;2023-03-15T10:31:13;14.60;;;5.13;;
30398;SDS011;17195;50.838;7.214;2023-03-15T10:33:42;6.57;;;4.43;;
30398;SDS011;17195;50.838;7.214;2023-03-15T10:36:12;8.52;;;4.47;;
30398;SDS011;17195;50.838;7.214;2023-03-15T10:38:38;10.48;;;5.78;;
30398;SDS011;17195;50.838;7.214;2023-03-15T10:41:05;9.15;;;5.25;;
30398;SDS011;17195;50.838;7.214;2023-03-15T10:43:32;10.10;;;4.30;;
30398;SDS011;17195;50.838;7.214;2023-03-15T10:46:05;11.25;;;4.18;;
30398;SDS011;17195;50.838;7.214;2023-03-15T10:48:32;6.50;;;3.55;;
30398;SDS011;17195;50.838;7.214;2023-03-15T10:51:06;6.05;;;3.95;;
30398;SDS011;17195;50.838;7.214;2023-03-15T10:54:03;7.70;;;3.90;;
30398;SDS011;17195;50.838;7.214;2023-03-15T10:56:31;7.50;;;3.85;;
30398;SDS011;17195;50.838;7.214;2023-03-15T10:59:01;8.20;;;4.07;;
30398;SDS011;17195;50.838;7.214;2023-03-15T11:01:28;10.57;;;4.43;;
30398;SDS011;17195;50.838;7.214;2023-03-15T11:04:21;6.70;;;3.60;;
30398;SDS011;17195;50.838;7.214;2023-03-15T11:06:49;6.85;;;3.35;;
30398;SDS011;17195;50.838;7.214;2023-03-15T11:09:22;7.20;;;3.50;;
30398;SDS011;17195;50.838;7.214;2023-03-15T11:14:36;10.25;;;3.47;;
30398;SDS011;17195;50.838;7.214;2023-03-15T11:19:31;5.95;;;3.40;;
30398;SDS011;17195;50.838;7.214;2023-03-15T11:22:02;6.80;;;3.08;;
30398;SDS011;17195;50.838;7.214;2023-03-15T11:24:29;6.18;;;3.35;;
30398;SDS011;17195;50.838;7.214;2023-03-15T11:26:57;4.85;;;2.65;;
30398;SDS011;17195;50.838;7.214;2023-03-15T11:32:12;6.43;;;2.63;;
30398;SDS011;17195;50.838;7.214;2023-03-15T11:35:03;10.77;;;3.58;;
30398;SDS011;17195;50.838;7.214;2023-03-15T11:37:33;5.68;;;2.67;;
30398;SDS011;17195;50.838;7.214;2023-03-15T11:40:16;9.48;;;2.85;;
30398;SDS011;17195;50.838;7.214;2023-03-15T11:48:32;4.45;;;2.25;;
30398;SDS011;17195;50.838;7.214;2023-03-15T11:51:05;6.80;;;2.70;;
30398;SDS011;17195;50.838;7.214;2023-03-15T11:53:33;4.45;;;2.55;;
30398;SDS011;17195;50.838;7.214;2023-03-15T11:56:19;3.55;;;2.38;;
30398;SDS011;17195;50.838;7.214;2023-03-15T11:59:01;8.93;;;2.60;;
30398;SDS011;17195;50.838;7.214;2023-03-15T12:01:35;6.18;;;2.55;;
30398;SDS011;17195;50.838;7.214;2023-03-15T12:06:49;6.07;;;2.58;;
30398;SDS011;17195;50.838;7.214;2023-03-15T12:12:14;4.88;;;2.40;;
30398;SDS011;17195;50.838;7.214;2023-03-15T12:25:53;7.15;;;3.15;;
30398;SDS011;17195;50.838;7.214;2023-03-15T12:31:15;6.65;;;3.25;;
30398;SDS011;17195;50.838;7.214;2023-03-15T12:33:45;6.57;;;3.05;;
30398;SDS011;17195;50.838;7.214;2023-03-15T12:38:57;6.85;;;2.60;;
30398;SDS011;17195;50.838;7.214;2023-03-15T12:52:01;7.03;;;3.28;;
30398;SDS011;17195;50.838;7.214;2023-03-15T12:54:38;10.07;;;3.45;;
30398;SDS011;17195;50.838;7.214;2023-03-15T12:57:07;11.52;;;4.55;;
30398;SDS011;17195;50.838;7.214;2023-03-15T12:59:42;5.88;;;3.45;;
30398;SDS011;17195;50.838;7.214;2023-03-15T13:02:22;8.43;;;3.55;;
30398;SDS011;17195;50.838;7.214;2023-03-15T13:10:35;8.25;;;2.67;;
30398;SDS011;17195;50.838;7.214;2023-03-15T13:19:22;9.63;;;4.15;;
30398;SDS011;17195;50.838;7.214;2023-03-15T13:21:33;7.95;;;3.95;;
30398;SDS011;17195;50.838;7.214;2023-03-15T13:24:00;6.20;;;2.30;;
30398;SDS011;17195;50.838;7.214;2023-03-15T13:26:33;7.18;;;2.38;;
30398;SDS011;17195;50.838;7.214;2023-03-15T13:29:09;4.22;;;2.17;;
30398;SDS011;17195;50.838;7.214;2023-03-15T13:34:20;7.32;;;1.77;;
30398;SDS011;17195;50.838;7.214;2023-03-15T13:36:52;4.93;;;1.63;;
30398;SDS011;17195;50.838;7.214;2023-03-15T13:41:47;6.82;;;1.90;;
30398;SDS011;17195;50.838;7.214;2023-03-15T13:44:18;5.35;;;2.00;;
30398;SDS011;17195;50.838;7.214;2023-03-15T13:46:45;3.92;;;1.67;;
30398;SDS011;17195;50.838;7.214;2023-03-15T13:49:12;5.43;;;2.30;;
30398;SDS011;17195;50.838;7.214;2023-03-15T13:51:37;5.05;;;1.90;;
30398;SDS011;17195;50.838;7.214;2023-03-15T13:54:04;9.10;;;1.90;;
30398;SDS011;17195;50.838;7.214;2023-03-15T13:56:40;3.42;;;1.33;;
30398;SDS011;17195;50.838;7.214;2023-03-15T13:59:20;7.03;;;1.80;;
30398;SDS011;17195;50.838;7.214;2023-03-15T14:01:51;4.03;;;1.67;;
30398;SDS011;17195;50.838;7.214;2023-03-15T14:04:18;4.65;;;1.83;;
30398;SDS011;17195;50.838;7.214;2023-03-15T14:06:46;6.20;;;2.10;;
30398;SDS011;17195;50.838;7.214;2023-03-15T14:09:16;4.90;;;1.58;;
30398;SDS011;17195;50.838;7.214;2023-03-15T14:11:46;6.68;;;1.98;;
30398;SDS011;17195;50.838;7.214;2023-03-15T14:14:26;5.10;;;1.80;;
30398;SDS011;17195;50.838;7.214;2023-03-15T14:16:53;11.38;;;3.72;;
30398;SDS011;17195;50.838;7.214;2023-03-15T14:19:24;10.52;;;4.18;;
30398;SDS011;17195;50.838;7.214;2023-03-15T14:21:53;6.05;;;3.00;;
30398;SDS011;17195;50.838;7.214;2023-03-15T14:24:21;11.27;;;4.15;;
30398;SDS011;17195;50.838;7.214;2023-03-15T14:27:22;5.25;;;2.50;;
30398;SDS011;17195;50.838;7.214;2023-03-15T14:29:52;4.20;;;1.90;;
30398;SDS011;17195;50.838;7.214;2023-03-15T14:32:21;5.10;;;2.00;;
30398;SDS011;17195;50.838;7.214;2023-03-15T14:34:55;4.75;;;1.77;;
30398;SDS011;17195;50.838;7.214;2023-03-15T14:37:45;8.43;;;1.20;;
30398;SDS011;17195;50.838;7.214;2023-03-15T14:40:20;5.15;;;1.50;;
30398;SDS011;17195;50.838;7.214;2023-03-15T14:42:51;3.83;;;1.40;;
30398;SDS011;17195;50.838;7.214;2023-03-15T14:45:17;4.05;;;1.38;;
30398;SDS011;17195;50.838;7.214;2023-03-15T14:48:10;6.03;;;1.30;;
30398;SDS011;17195;50.838;7.214;2023-03-15T14:50:39;4.45;;;1.65;;
30398;SDS011;17195;50.838;7.214;2023-03-15T14:53:14;7.78;;;2.00;;
30398;SDS011;17195;50.838;7.214;2023-03-15T14:55:42;3.72;;;1.83;;
30398;SDS011;17195;50.838;7.214;2023-03-15T14:58:11;5.03;;;1.77;;
30398;SDS011;17195;50.838;7.214;2023-03-15T15:00:39;4.85;;;1.40;;
30398;SDS011;17195;50.838;7.214;2023-03-15T15:03:06;5.00;;;1.45;;
30398;SDS011;17195;50.838;7.214;2023-03-15T15:05:42;2.88;;;1.05;;
30398;SDS011;17195;50.838;7.214;2023-03-15T15:08:12;6.15;;;1.92;;
30398;SDS011;17195;50.838;7.214;2023-03-15T15:10:39;6.57;;;1.40;;
30398;SDS011;17195;50.838;7.214;2023-03-15T15:13:08;7.97;;;1.60;;
30398;SDS011;17195;50.838;7.214;2023-03-15T15:15:39;3.10;;;1.05;;
30398;SDS011;17195;50.838;7.214;2023-03-15T15:18:05;5.05;;;1.55;;
30398;SDS011;17195;50.838;7.214;2023-03-15T15:20:30;4.78;;;1.30;;
30398;SDS011;17195;50.838;7.214;2023-03-15T15:22:56;3.65;;;1.30;;
30398;SDS011;17195;50.838;7.214;2023-03-15T15:25:22;2.15;;;0.90;;
30398;SDS011;17195;50.838;7.214;2023-03-15T15:27:48;4.28;;;1.48;;
30398;SDS011;17195;50.838;7.214;2023-03-15T15:30:15;5.25;;;1.67;;
30398;SDS011;17195;50.838;7.214;2023-03-15T15:32:45;5.25;;;1.60;;
30398;SDS011;17195;50.838;7.214;2023-03-15T15:35:15;8.07;;;1.27;;
30398;SDS011;17195;50.838;7.214;2023-03-15T15:37:42;5.28;;;1.40;;
30398;SDS011;17195;50.838;7.214;2023-03-15T15:40:13;4.20;;;1.60;;
30398;SDS011;17195;50.838;7.214;2023-03-15T15:42:42;4.90;;;1.63;;
30398;SDS011;17195;50.838;7.214;2023-03-15T15:45:12;6.55;;;2.20;;
30398;SDS011;17195;50.838;7.214;2023-03-15T15:47:40;8.55;;;2.00;;
30398;SDS011;17195;50.838;7.214;2023-03-15T15:50:06;4.70;;;1.25;;
30398;SDS011;17195;50.838;7.214;2023-03-15T15:52:37;4.40;;;1.13;;
30398;SDS011;17195;50.838;7.214;2023-03-15T15:55:14;3.38;;;1.40;;
30398;SDS011;17195;50.838;7.214;2023-03-15T15:57:43;4.95;;;1.45;;
30398;SDS011;17195;50.838;7.214;2023-03-15T16:00:12;4.68;;;1.33;;
30398;SDS011;17195;50.838;7.214;2023-03-15T16:02:43;2.80;;;1.27;;